createdAt,value
2019-02-24T00:01:07.131Z,5.93
2019-02-24T00:06:25.751Z,6.13
2019-02-24T00:11:46.030Z,5.90
2019-02-24T00:17:04.696Z,5.40
2019-02-24T00:22:23.306Z,5.03
2019-02-24T00:27:41.848Z,5.60
2019-02-24T00:33:00.325Z,4.33
2019-02-24T00:38:20.688Z,5.43
2019-02-24T00:43:39.208Z,5.60
2019-02-24T00:48:57.828Z,5.13
2019-02-24T00:54:16.367Z,4.70
2019-02-24T00:59:34.917Z,5.30
2019-02-24T01:04:53.548Z,5.63
2019-02-24T01:10:12.186Z,5.10
2019-02-24T01:15:30.817Z,5.13
2019-02-24T01:20:49.491Z,5.27
2019-02-24T01:26:08.107Z,4.90
2019-02-24T01:31:26.698Z,5.07
2019-02-24T01:42:14.532Z,5.03
2019-02-24T01:47:33.095Z,5.00
2019-02-24T01:52:51.864Z,4.63
2019-02-24T01:58:10.508Z,4.20
2019-02-24T02:03:29.170Z,5.00
2019-02-24T02:08:47.717Z,3.27
2019-02-24T02:14:06.332Z,4.05
2019-02-24T02:19:25.166Z,3.83
2019-02-24T02:24:43.764Z,4.27
2019-02-24T02:30:02.421Z,4.23
2019-02-24T02:35:20.972Z,4.58
2019-02-24T02:40:39.708Z,4.50
2019-02-24T02:45:58.250Z,4.10
2019-02-24T02:51:16.751Z,4.50
2019-02-24T02:56:35.376Z,4.57
2019-02-24T03:01:53.925Z,4.00
2019-02-24T03:07:14.206Z,4.47
2019-02-24T03:12:32.768Z,4.27
2019-02-24T03:17:51.378Z,4.33
2019-02-24T03:23:10.001Z,4.43
2019-02-24T03:28:28.548Z,4.03
2019-02-24T03:33:47.098Z,4.03
2019-02-24T03:39:06.413Z,4.70
2019-02-24T03:44:25.032Z,4.10
2019-02-24T03:49:43.570Z,3.20
2019-02-24T03:55:02.100Z,4.07
2019-02-24T04:00:20.628Z,3.75
2019-02-24T04:05:39.179Z,4.20
2019-02-24T04:10:57.798Z,4.07
2019-02-24T04:16:16.277Z,4.17
2019-02-24T04:21:34.837Z,4.40
2019-02-24T04:26:53.409Z,4.90
2019-02-24T04:32:11.974Z,3.90
2019-02-24T04:37:30.541Z,3.87
2019-02-24T04:42:49.209Z,3.70
2019-02-24T04:48:07.720Z,3.87
2019-02-24T04:53:26.243Z,3.63
2019-02-24T04:58:44.903Z,3.97
2019-02-24T05:04:03.530Z,4.07
2019-02-24T05:09:22.348Z,3.67
2019-02-24T05:14:40.973Z,3.73
2019-02-24T05:19:59.556Z,4.60
2019-02-24T05:25:18.175Z,3.67
2019-02-24T05:30:36.824Z,4.47
2019-02-24T05:35:55.463Z,3.70
2019-02-24T05:41:14.010Z,3.30
2019-02-24T05:46:32.548Z,4.40
2019-02-24T05:51:51.168Z,4.03
2019-02-24T05:57:09.776Z,3.27
2019-02-24T06:02:28.347Z,3.60
2019-02-24T06:07:46.949Z,3.60
2019-02-24T06:13:05.506Z,3.27
2019-02-24T06:18:24.439Z,3.87
2019-02-24T06:23:42.993Z,3.17
2019-02-24T06:29:01.551Z,3.60
2019-02-24T06:34:20.109Z,3.57
2019-02-24T06:39:38.745Z,4.10
2019-02-24T06:44:57.361Z,3.70
2019-02-24T06:50:16.159Z,3.33
2019-02-24T06:55:34.980Z,3.17
2019-02-24T07:00:53.646Z,4.17
2019-02-24T07:06:12.117Z,4.37
2019-02-24T07:11:30.865Z,3.47
2019-02-24T07:16:49.409Z,3.20
2019-02-24T07:22:08.024Z,3.40
2019-02-24T07:27:26.583Z,3.40
2019-02-24T07:32:45.157Z,2.97
2019-02-24T07:38:03.920Z,3.23
2019-02-24T07:43:22.385Z,3.08
2019-02-24T07:48:40.994Z,2.97
2019-02-24T07:54:01.615Z,3.27
2019-02-24T07:59:19.865Z,2.53
2019-02-24T08:04:38.403Z,3.80
2019-02-24T08:09:56.941Z,2.97
2019-02-24T08:15:15.556Z,2.27
2019-02-24T08:20:34.108Z,2.80
2019-02-24T08:25:52.748Z,2.60
2019-02-24T08:31:11.320Z,2.40
2019-02-24T08:36:29.918Z,2.97
2019-02-24T08:41:48.533Z,2.47
2019-02-24T08:47:07.294Z,2.50
2019-02-24T08:52:26.119Z,2.63
2019-02-24T08:57:44.751Z,2.17
2019-02-24T09:03:03.394Z,2.47
2019-02-24T09:08:22.055Z,2.73
2019-02-24T09:13:40.595Z,2.67
2019-02-24T09:18:59.262Z,2.50
2019-02-24T09:24:18.079Z,3.37
2019-02-24T09:29:36.696Z,2.83
2019-02-24T09:34:55.249Z,2.87
2019-02-24T09:40:13.885Z,3.02
2019-02-24T09:45:32.418Z,3.40
2019-02-24T09:50:54.780Z,2.80
2019-02-24T09:56:13.401Z,3.33
2019-02-24T10:01:31.968Z,2.80
2019-02-24T10:06:50.660Z,2.90
2019-02-24T10:12:09.491Z,3.00
2019-02-24T10:17:28.042Z,2.43
2019-02-24T10:22:46.607Z,4.27
2019-02-24T10:28:05.337Z,2.70
2019-02-24T10:33:23.819Z,2.40
2019-02-24T10:38:42.418Z,1.90
2019-02-24T10:44:01.100Z,2.03
2019-02-24T10:49:19.614Z,2.30
2019-02-24T10:54:38.225Z,1.73
2019-02-24T10:59:56.739Z,1.83
2019-02-24T11:05:16.170Z,1.67
2019-02-24T11:10:34.765Z,1.87
2019-02-24T11:15:53.307Z,1.57
2019-02-24T11:21:11.969Z,1.47
2019-02-24T11:26:30.792Z,1.57
2019-02-24T11:31:49.357Z,1.77
2019-02-24T11:37:08.232Z,1.60
2019-02-24T11:42:26.914Z,1.50
2019-02-24T11:47:47.139Z,1.60
2019-02-24T11:53:05.688Z,1.73
2019-02-24T11:58:24.238Z,1.50
2019-02-24T12:03:42.922Z,1.80
2019-02-24T12:09:05.195Z,1.67
2019-02-24T12:14:30.614Z,1.67
2019-02-24T12:19:49.172Z,1.43
2019-02-24T12:25:10.033Z,2.00
2019-02-24T12:30:31.473Z,1.50
2019-02-24T12:35:53.461Z,1.63
2019-02-24T12:41:11.999Z,1.70
2019-02-24T12:46:30.616Z,1.50
2019-02-24T12:51:49.248Z,1.80
2019-02-24T12:57:07.782Z,1.70
2019-02-24T13:02:26.408Z,1.70
2019-02-24T13:07:44.961Z,1.60
2019-02-24T13:13:03.614Z,1.60
2019-02-24T13:18:22.224Z,1.57
2019-02-24T13:23:41.971Z,1.47
2019-02-24T13:29:00.585Z,1.40
2019-02-24T13:34:19.121Z,1.53
2019-02-24T13:39:37.845Z,1.40
2019-02-24T13:44:56.346Z,1.57
2019-02-24T13:50:16.166Z,1.70
2019-02-24T13:55:34.799Z,1.40
2019-02-24T14:00:54.797Z,1.50
2019-02-24T14:06:13.426Z,1.57
2019-02-24T14:11:32.119Z,1.57
2019-02-24T14:16:50.790Z,1.40
2019-02-24T14:22:09.834Z,1.53
2019-02-24T14:27:28.983Z,1.43
2019-02-24T14:32:47.772Z,1.60
2019-02-24T14:38:06.385Z,1.37
2019-02-24T14:43:25.067Z,1.50
2019-02-24T14:48:44.848Z,1.70
2019-02-24T14:54:03.861Z,1.57
2019-02-24T14:59:22.484Z,1.70
2019-02-24T15:04:41.155Z,1.73
2019-02-24T15:09:59.793Z,1.90
2019-02-24T15:15:26.420Z,2.00
2019-02-24T15:20:43.641Z,1.90
2019-02-24T15:26:02.188Z,2.03
2019-02-24T15:31:20.649Z,2.00
2019-02-24T15:36:39.841Z,1.80
2019-02-24T15:41:58.769Z,1.87
2019-02-24T15:47:17.461Z,2.00
2019-02-24T15:52:36.052Z,2.10
2019-02-24T15:57:57.202Z,1.90
2019-02-24T16:03:15.737Z,2.20
2019-02-24T16:08:34.366Z,2.07
2019-02-24T16:13:53.776Z,2.40
2019-02-24T16:19:12.391Z,2.23
2019-02-24T16:24:30.943Z,2.40
2019-02-24T16:29:49.805Z,2.47
2019-02-24T16:35:14.190Z,3.13
2019-02-24T16:40:43.697Z,2.93
2019-02-24T16:46:01.326Z,2.98
2019-02-24T16:51:21.747Z,3.70
2019-02-24T16:56:41.335Z,3.45
2019-02-24T17:01:59.956Z,2.97
2019-02-24T17:07:29.539Z,2.67
2019-02-24T17:13:01.847Z,2.90
2019-02-24T17:18:20.952Z,3.57
2019-02-24T17:23:39.508Z,2.80
2019-02-24T17:28:58.284Z,3.60
2019-02-24T17:34:16.793Z,3.00
2019-02-24T17:39:35.335Z,3.27
2019-02-24T17:44:54.022Z,3.00
2019-02-24T17:50:14.345Z,3.33
2019-02-24T17:55:34.552Z,3.17
2019-02-24T18:00:54.800Z,3.00
2019-02-24T18:06:13.340Z,2.93
2019-02-24T18:11:32.027Z,2.93
2019-02-24T18:16:50.564Z,2.87
2019-02-24T18:22:09.384Z,2.73
2019-02-24T18:27:27.929Z,3.03
2019-02-24T18:32:46.544Z,3.23
2019-02-24T18:38:05.196Z,3.83
2019-02-24T18:43:23.792Z,4.57
2019-02-24T18:48:42.477Z,3.60
2019-02-24T18:54:01.124Z,3.40
2019-02-24T18:59:19.686Z,4.03
2019-02-24T19:04:38.237Z,3.70
2019-02-24T19:09:58.343Z,3.77
2019-02-24T19:15:21.982Z,5.05
2019-02-24T19:20:40.923Z,4.90
2019-02-24T19:25:59.568Z,4.20
2019-02-24T19:31:18.177Z,4.77
2019-02-24T19:36:36.723Z,4.80
2019-02-24T19:41:56.279Z,4.00
2019-02-24T19:47:14.891Z,4.10
2019-02-24T19:52:33.615Z,4.00
2019-02-24T19:57:52.513Z,3.83
2019-02-24T20:03:11.148Z,4.00
2019-02-24T20:08:36.768Z,4.13
2019-02-24T20:13:57.857Z,4.20
2019-02-24T20:19:29.327Z,3.93
2019-02-24T20:25:09.345Z,4.57
2019-02-24T20:30:30.536Z,4.50
2019-02-24T20:35:49.166Z,3.80
2019-02-24T20:41:07.715Z,3.80
2019-02-24T20:46:26.251Z,4.17
2019-02-24T20:51:44.869Z,5.70
2019-02-24T20:57:03.494Z,4.40
2019-02-24T21:02:22.056Z,3.20
2019-02-24T21:07:41.705Z,4.97
2019-02-24T21:13:00.338Z,5.50
2019-02-24T21:18:18.889Z,4.70
2019-02-24T21:23:39.797Z,4.70
2019-02-24T21:29:02.572Z,4.07
2019-02-24T21:34:21.727Z,4.30
2019-02-24T21:39:41.503Z,4.47
2019-02-24T21:45:01.798Z,5.10
2019-02-24T21:50:20.434Z,4.00
2019-02-24T21:55:38.905Z,4.33
2019-02-24T22:00:57.722Z,5.57
2019-02-24T22:06:16.844Z,4.90
2019-02-24T22:11:35.465Z,4.40
2019-02-24T22:16:54.004Z,4.43
2019-02-24T22:22:14.210Z,4.33
2019-02-24T22:27:32.826Z,4.50
2019-02-24T22:32:51.425Z,4.10
2019-02-24T22:38:10.037Z,4.00
2019-02-24T22:43:28.807Z,3.63
2019-02-24T22:48:48.484Z,4.42
2019-02-24T22:54:07.117Z,3.87
2019-02-24T22:59:25.733Z,3.27
2019-02-24T23:04:44.383Z,3.40
2019-02-24T23:10:04.052Z,3.67
2019-02-24T23:15:22.774Z,4.40
2019-02-24T23:20:41.315Z,4.10
2019-02-24T23:25:59.939Z,3.43
2019-02-24T23:31:18.564Z,3.40
2019-02-24T23:36:37.164Z,3.30
2019-02-24T23:41:56.035Z,4.20
2019-02-24T23:47:16.415Z,4.00
2019-02-24T23:52:35.443Z,3.77
2019-02-24T23:57:53.986Z,3.53
